sensor_id;sensor_type;location;lat;lon;timestamp;P1;durP1;ratioP1;P2;durP2;ratioP2
4290;SDS011;2159;50.906;7.152;2023-03-20T00:01:08;20.10;;;12.10;;
4290;SDS011;2159;50.906;7.152;2023-03-20T00:03:39;20.57;;;11.57;;
4290;SDS011;2159;50.906;7.152;2023-03-20T00:06:10;21.17;;;11.20;;
4290;SDS011;2159;50.906;7.152;2023-03-20T00:08:39;19.50;;;11.60;;
4290;SDS011;2159;50.906;7.152;2023-03-20T00:11:09;20.23;;;11.30;;
4290;SDS011;2159;50.906;7.152;2023-03-20T00:13:43;18.67;;;11.37;;
4290;SDS011;2159;50.906;7.152;2023-03-20T00:16:11;18.40;;;10.90;;
4290;SDS011;2159;50.906;7.152;2023-03-20T00:18:41;17.80;;;11.17;;
4290;SDS011;2159;50.906;7.152;2023-03-20T00:21:08;20.33;;;11.40;;
4290;SDS011;2159;50.906;7.152;2023-03-20T00:23:36;17.37;;;11.00;;
4290;SDS011;2159;50.906;7.152;2023-03-20T00:26:04;18.53;;;11.83;;
4290;SDS011;2159;50.906;7.152;2023-03-20T00:28:35;16.97;;;11.07;;
4290;SDS011;2159;50.906;7.152;2023-03-20T00:31:04;16.37;;;11.23;;
4290;SDS011;2159;50.906;7.152;2023-03-20T00:33:32;16.50;;;10.70;;
4290;SDS011;2159;50.906;7.152;2023-03-20T00:36:01;19.17;;;10.93;;
4290;SDS011;2159;50.906;7.152;2023-03-20T00:38:29;15.90;;;10.77;;
4290;SDS011;2159;50.906;7.152;2023-03-20T00:40:56;17.77;;;11.10;;
4290;SDS011;2159;50.906;7.152;2023-03-20T00:43:24;20.43;;;11.00;;
4290;SDS011;2159;50.906;7.152;2023-03-20T00:45:51;17.30;;;11.23;;
4290;SDS011;2159;50.906;7.152;2023-03-20T00:48:19;16.73;;;10.53;;
4290;SDS011;2159;50.906;7.152;2023-03-20T00:50:46;18.67;;;11.20;;
4290;SDS011;2159;50.906;7.152;2023-03-20T00:53:16;16.93;;;11.37;;
4290;SDS011;2159;50.906;7.152;2023-03-20T00:55:43;17.30;;;11.03;;
4290;SDS011;2159;50.906;7.152;2023-03-20T00:58:11;17.63;;;10.80;;
4290;SDS011;2159;50.906;7.152;2023-03-20T01:00:39;20.23;;;11.90;;
4290;SDS011;2159;50.906;7.152;2023-03-20T01:03:11;16.20;;;10.90;;
4290;SDS011;2159;50.906;7.152;2023-03-20T01:05:40;17.67;;;11.00;;
4290;SDS011;2159;50.906;7.152;2023-03-20T01:08:11;18.83;;;11.83;;
4290;SDS011;2159;50.906;7.152;2023-03-20T01:10:40;16.67;;;11.23;;
4290;SDS011;2159;50.906;7.152;2023-03-20T01:13:12;16.83;;;10.83;;
4290;SDS011;2159;50.906;7.152;2023-03-20T01:15:41;19.93;;;11.87;;
4290;SDS011;2159;50.906;7.152;2023-03-20T01:18:10;18.20;;;11.03;;
4290;SDS011;2159;50.906;7.152;2023-03-20T01:20:38;19.73;;;11.70;;
4290;SDS011;2159;50.906;7.152;2023-03-20T01:23:06;16.33;;;11.00;;
4290;SDS011;2159;50.906;7.152;2023-03-20T01:25:33;18.67;;;12.20;;
4290;SDS011;2159;50.906;7.152;2023-03-20T01:28:03;18.63;;;11.90;;
4290;SDS011;2159;50.906;7.152;2023-03-20T01:30:37;18.20;;;11.70;;
4290;SDS011;2159;50.906;7.152;2023-03-20T01:33:05;19.77;;;11.80;;
4290;SDS011;2159;50.906;7.152;2023-03-20T01:35:38;20.60;;;12.70;;
4290;SDS011;2159;50.906;7.152;2023-03-20T01:38:08;20.60;;;12.87;;
4290;SDS011;2159;50.906;7.152;2023-03-20T01:40:39;23.63;;;13.20;;
4290;SDS011;2159;50.906;7.152;2023-03-20T01:43:13;27.03;;;13.60;;
4290;SDS011;2159;50.906;7.152;2023-03-20T01:45:46;24.40;;;14.53;;
4290;SDS011;2159;50.906;7.152;2023-03-20T01:48:16;23.30;;;14.00;;
4290;SDS011;2159;50.906;7.152;2023-03-20T01:50:44;23.50;;;14.33;;
4290;SDS011;2159;50.906;7.152;2023-03-20T01:53:12;23.03;;;13.80;;
4290;SDS011;2159;50.906;7.152;2023-03-20T01:55:41;22.10;;;14.23;;
4290;SDS011;2159;50.906;7.152;2023-03-20T01:58:11;23.50;;;12.30;;
4290;SDS011;2159;50.906;7.152;2023-03-20T02:00:41;23.00;;;12.87;;
4290;SDS011;2159;50.906;7.152;2023-03-20T02:03:09;23.43;;;13.87;;
4290;SDS011;2159;50.906;7.152;2023-03-20T02:05:36;20.53;;;12.83;;
4290;SDS011;2159;50.906;7.152;2023-03-20T02:08:09;23.63;;;13.97;;
4290;SDS011;2159;50.906;7.152;2023-03-20T02:10:39;20.93;;;13.13;;
4290;SDS011;2159;50.906;7.152;2023-03-20T02:13:07;20.47;;;13.13;;
4290;SDS011;2159;50.906;7.152;2023-03-20T02:18:20;21.60;;;12.97;;
4290;SDS011;2159;50.906;7.152;2023-03-20T02:20:49;21.77;;;13.17;;
4290;SDS011;2159;50.906;7.152;2023-03-20T02:23:34;21.17;;;13.17;;
4290;SDS011;2159;50.906;7.152;2023-03-20T02:26:09;22.17;;;12.73;;
4290;SDS011;2159;50.906;7.152;2023-03-20T02:31:39;20.30;;;12.30;;
4290;SDS011;2159;50.906;7.152;2023-03-20T02:34:18;21.43;;;13.00;;
4290;SDS011;2159;50.906;7.152;2023-03-20T02:42:16;20.50;;;12.47;;
4290;SDS011;2159;50.906;7.152;2023-03-20T02:44:45;20.53;;;12.47;;
4290;SDS011;2159;50.906;7.152;2023-03-20T02:47:16;21.27;;;13.10;;
4290;SDS011;2159;50.906;7.152;2023-03-20T02:49:52;22.77;;;13.03;;
4290;SDS011;2159;50.906;7.152;2023-03-20T02:52:22;17.77;;;11.57;;
4290;SDS011;2159;50.906;7.152;2023-03-20T02:54:53;18.23;;;11.73;;
4290;SDS011;2159;50.906;7.152;2023-03-20T02:57:30;18.57;;;12.27;;
4290;SDS011;2159;50.906;7.152;2023-03-20T03:00:07;21.80;;;13.00;;
4290;SDS011;2159;50.906;7.152;2023-03-20T03:02:36;20.00;;;12.43;;
4290;SDS011;2159;50.906;7.152;2023-03-20T03:05:06;17.77;;;11.10;;
4290;SDS011;2159;50.906;7.152;2023-03-20T03:07:35;21.60;;;12.37;;
4290;SDS011;2159;50.906;7.152;2023-03-20T03:10:04;21.50;;;12.70;;
4290;SDS011;2159;50.906;7.152;2023-03-20T03:12:34;18.03;;;11.93;;
4290;SDS011;2159;50.906;7.152;2023-03-20T03:15:03;18.90;;;11.70;;
4290;SDS011;2159;50.906;7.152;2023-03-20T03:17:33;20.93;;;12.63;;
4290;SDS011;2159;50.906;7.152;2023-03-20T03:20:02;20.37;;;12.10;;
4290;SDS011;2159;50.906;7.152;2023-03-20T03:22:32;21.10;;;12.20;;
4290;SDS011;2159;50.906;7.152;2023-03-20T03:25:01;18.00;;;11.70;;
4290;SDS011;2159;50.906;7.152;2023-03-20T03:27:31;18.73;;;11.80;;
4290;SDS011;2159;50.906;7.152;2023-03-20T03:30:04;19.07;;;11.40;;
4290;SDS011;2159;50.906;7.152;2023-03-20T03:32:33;18.17;;;11.80;;
4290;SDS011;2159;50.906;7.152;2023-03-20T03:35:02;20.00;;;12.77;;
4290;SDS011;2159;50.906;7.152;2023-03-20T03:37:36;19.60;;;12.50;;
4290;SDS011;2159;50.906;7.152;2023-03-20T03:40:07;21.20;;;12.00;;
4290;SDS011;2159;50.906;7.152;2023-03-20T03:42:38;17.23;;;11.10;;
4290;SDS011;2159;50.906;7.152;2023-03-20T03:45:08;22.90;;;11.60;;
4290;SDS011;2159;50.906;7.152;2023-03-20T03:47:39;18.33;;;11.70;;
4290;SDS011;2159;50.906;7.152;2023-03-20T03:50:10;17.60;;;11.13;;
4290;SDS011;2159;50.906;7.152;2023-03-20T03:52:38;21.53;;;12.07;;
4290;SDS011;2159;50.906;7.152;2023-03-20T03:55:09;24.20;;;10.93;;
4290;SDS011;2159;50.906;7.152;2023-03-20T03:57:38;18.27;;;11.40;;
4290;SDS011;2159;50.906;7.152;2023-03-20T04:00:10;17.20;;;11.33;;
4290;SDS011;2159;50.906;7.152;2023-03-20T04:02:38;16.17;;;10.73;;
4290;SDS011;2159;50.906;7.152;2023-03-20T04:05:06;20.00;;;10.70;;
4290;SDS011;2159;50.906;7.152;2023-03-20T04:07:33;20.13;;;11.60;;
4290;SDS011;2159;50.906;7.152;2023-03-20T04:10:01;20.03;;;10.90;;
4290;SDS011;2159;50.906;7.152;2023-03-20T04:12:31;17.27;;;11.37;;
4290;SDS011;2159;50.906;7.152;2023-03-20T04:14:59;16.50;;;10.43;;
4290;SDS011;2159;50.906;7.152;2023-03-20T04:17:30;15.40;;;9.90;;
4290;SDS011;2159;50.906;7.152;2023-03-20T04:19:57;16.33;;;10.53;;
4290;SDS011;2159;50.906;7.152;2023-03-20T04:22:25;22.30;;;11.17;;
4290;SDS011;2159;50.906;7.152;2023-03-20T04:24:52;21.90;;;12.80;;
4290;SDS011;2159;50.906;7.152;2023-03-20T04:27:20;18.43;;;11.33;;
4290;SDS011;2159;50.906;7.152;2023-03-20T04:29:47;19.17;;;11.20;;
4290;SDS011;2159;50.906;7.152;2023-03-20T04:32:15;18.50;;;11.67;;
4290;SDS011;2159;50.906;7.152;2023-03-20T04:34:43;17.43;;;12.00;;
4290;SDS011;2159;50.906;7.152;2023-03-20T04:37:11;24.23;;;11.60;;
4290;SDS011;2159;50.906;7.152;2023-03-20T04:39:38;19.10;;;11.60;;
4290;SDS011;2159;50.906;7.152;2023-03-20T04:42:07;24.67;;;12.70;;
4290;SDS011;2159;50.906;7.152;2023-03-20T04:44:35;22.30;;;11.60;;
4290;SDS011;2159;50.906;7.152;2023-03-20T04:47:02;19.77;;;11.23;;
4290;SDS011;2159;50.906;7.152;2023-03-20T04:49:30;16.57;;;10.50;;
4290;SDS011;2159;50.906;7.152;2023-03-20T04:51:58;14.53;;;9.00;;
4290;SDS011;2159;50.906;7.152;2023-03-20T04:54:26;18.23;;;10.00;;
4290;SDS011;2159;50.906;7.152;2023-03-20T04:56:53;15.70;;;9.50;;
4290;SDS011;2159;50.906;7.152;2023-03-20T04:59:21;15.93;;;9.93;;
4290;SDS011;2159;50.906;7.152;2023-03-20T05:01:48;17.00;;;10.60;;
4290;SDS011;2159;50.906;7.152;2023-03-20T05:04:16;14.77;;;9.47;;
4290;SDS011;2159;50.906;7.152;2023-03-20T05:06:43;13.17;;;8.83;;
4290;SDS011;2159;50.906;7.152;2023-03-20T05:09:15;16.53;;;9.67;;
4290;SDS011;2159;50.906;7.152;2023-03-20T05:11:43;16.53;;;9.50;;
4290;SDS011;2159;50.906;7.152;2023-03-20T05:14:10;16.37;;;9.30;;
4290;SDS011;2159;50.906;7.152;2023-03-20T05:16:38;16.47;;;9.13;;
4290;SDS011;2159;50.906;7.152;2023-03-20T05:19:06;18.40;;;9.20;;
4290;SDS011;2159;50.906;7.152;2023-03-20T05:21:33;16.73;;;10.60;;
4290;SDS011;2159;50.906;7.152;2023-03-20T05:24:00;14.07;;;8.63;;
4290;SDS011;2159;50.906;7.152;2023-03-20T05:26:29;16.33;;;9.90;;
4290;SDS011;2159;50.906;7.152;2023-03-20T05:28:57;15.93;;;9.00;;
4290;SDS011;2159;50.906;7.152;2023-03-20T05:31:24;13.83;;;9.00;;
4290;SDS011;2159;50.906;7.152;2023-03-20T05:33:52;17.10;;;9.90;;
4290;SDS011;2159;50.906;7.152;2023-03-20T05:36:20;21.23;;;9.30;;
4290;SDS011;2159;50.906;7.152;2023-03-20T05:38:47;15.03;;;9.33;;
4290;SDS011;2159;50.906;7.152;2023-03-20T05:41:15;16.20;;;9.07;;
4290;SDS011;2159;50.906;7.152;2023-03-20T05:43:43;15.13;;;8.73;;
4290;SDS011;2159;50.906;7.152;2023-03-20T05:46:11;19.27;;;9.30;;
4290;SDS011;2159;50.906;7.152;2023-03-20T05:48:39;18.47;;;9.60;;
4290;SDS011;2159;50.906;7.152;2023-03-20T05:51:06;15.40;;;8.97;;
4290;SDS011;2159;50.906;7.152;2023-03-20T05:53:34;14.70;;;8.97;;
4290;SDS011;2159;50.906;7.152;2023-03-20T05:56:01;12.30;;;8.80;;
4290;SDS011;2159;50.906;7.152;2023-03-20T05:58:29;16.03;;;9.00;;
4290;SDS011;2159;50.906;7.152;2023-03-20T06:00:58;16.57;;;9.10;;
4290;SDS011;2159;50.906;7.152;2023-03-20T06:03:25;14.93;;;9.37;;
4290;SDS011;2159;50.906;7.152;2023-03-20T06:05:53;16.40;;;9.73;;
4290;SDS011;2159;50.906;7.152;2023-03-20T06:08:20;15.63;;;9.60;;
4290;SDS011;2159;50.906;7.152;2023-03-20T06:10:48;16.33;;;9.70;;
4290;SDS011;2159;50.906;7.152;2023-03-20T06:13:16;18.13;;;9.60;;
4290;SDS011;2159;50.906;7.152;2023-03-20T06:15:44;16.70;;;9.13;;
4290;SDS011;2159;50.906;7.152;2023-03-20T06:18:13;15.80;;;9.60;;
4290;SDS011;2159;50.906;7.152;2023-03-20T06:20:40;18.53;;;9.80;;
4290;SDS011;2159;50.906;7.152;2023-03-20T06:23:08;13.83;;;9.07;;
4290;SDS011;2159;50.906;7.152;2023-03-20T06:25:35;18.17;;;9.30;;
4290;SDS011;2159;50.906;7.152;2023-03-20T06:28:03;17.80;;;9.17;;
4290;SDS011;2159;50.906;7.152;2023-03-20T06:30:31;15.10;;;9.53;;
4290;SDS011;2159;50.906;7.152;2023-03-20T06:32:58;15.60;;;9.27;;
4290;SDS011;2159;50.906;7.152;2023-03-20T06:35:27;13.10;;;8.60;;
4290;SDS011;2159;50.906;7.152;2023-03-20T06:37:56;15.07;;;9.30;;
4290;SDS011;2159;50.906;7.152;2023-03-20T06:40:24;15.50;;;8.67;;
4290;SDS011;2159;50.906;7.152;2023-03-20T06:42:52;16.37;;;9.67;;
4290;SDS011;2159;50.906;7.152;2023-03-20T06:45:20;14.30;;;8.30;;
4290;SDS011;2159;50.906;7.152;2023-03-20T06:47:47;14.80;;;9.70;;
4290;SDS011;2159;50.906;7.152;2023-03-20T06:50:15;14.17;;;8.60;;
4290;SDS011;2159;50.906;7.152;2023-03-20T06:52:44;15.07;;;9.83;;
4290;SDS011;2159;50.906;7.152;2023-03-20T06:55:12;16.60;;;9.63;;
4290;SDS011;2159;50.906;7.152;2023-03-20T06:57:39;21.60;;;9.87;;
4290;SDS011;2159;50.906;7.152;2023-03-20T07:00:07;17.43;;;10.03;;
4290;SDS011;2159;50.906;7.152;2023-03-20T07:02:35;16.27;;;10.40;;
4290;SDS011;2159;50.906;7.152;2023-03-20T07:05:02;17.87;;;10.03;;
4290;SDS011;2159;50.906;7.152;2023-03-20T07:07:30;19.30;;;10.67;;
4290;SDS011;2159;50.906;7.152;2023-03-20T07:09:59;14.87;;;10.13;;
4290;SDS011;2159;50.906;7.152;2023-03-20T07:12:27;17.97;;;9.90;;
4290;SDS011;2159;50.906;7.152;2023-03-20T07:14:55;16.00;;;9.23;;
4290;SDS011;2159;50.906;7.152;2023-03-20T07:17:22;16.80;;;9.33;;
4290;SDS011;2159;50.906;7.152;2023-03-20T07:19:50;16.67;;;10.07;;
4290;SDS011;2159;50.906;7.152;2023-03-20T07:22:19;17.40;;;9.63;;
4290;SDS011;2159;50.906;7.152;2023-03-20T07:24:47;15.13;;;9.10;;
4290;SDS011;2159;50.906;7.152;2023-03-20T07:27:15;15.37;;;9.50;;
4290;SDS011;2159;50.906;7.152;2023-03-20T07:29:43;19.07;;;10.73;;
4290;SDS011;2159;50.906;7.152;2023-03-20T07:32:11;16.80;;;9.63;;
4290;SDS011;2159;50.906;7.152;2023-03-20T07:34:38;16.27;;;9.50;;
4290;SDS011;2159;50.906;7.152;2023-03-20T07:37:06;17.70;;;9.90;;
4290;SDS011;2159;50.906;7.152;2023-03-20T07:39:34;16.07;;;9.87;;
4290;SDS011;2159;50.906;7.152;2023-03-20T07:42:01;17.90;;;9.87;;
4290;SDS011;2159;50.906;7.152;2023-03-20T07:44:30;15.83;;;9.80;;
4290;SDS011;2159;50.906;7.152;2023-03-20T07:46:57;18.67;;;10.03;;
4290;SDS011;2159;50.906;7.152;2023-03-20T07:49:25;16.17;;;9.93;;
4290;SDS011;2159;50.906;7.152;2023-03-20T07:51:53;16.10;;;9.93;;
4290;SDS011;2159;50.906;7.152;2023-03-20T07:54:22;15.57;;;9.30;;
4290;SDS011;2159;50.906;7.152;2023-03-20T07:56:49;16.37;;;8.80;;
4290;SDS011;2159;50.906;7.152;2023-03-20T07:59:17;13.73;;;9.70;;
4290;SDS011;2159;50.906;7.152;2023-03-20T08:01:46;13.00;;;9.00;;
4290;SDS011;2159;50.906;7.152;2023-03-20T08:04:13;14.67;;;8.70;;
4290;SDS011;2159;50.906;7.152;2023-03-20T08:06:44;15.20;;;9.03;;
4290;SDS011;2159;50.906;7.152;2023-03-20T08:09:12;14.33;;;9.00;;
4290;SDS011;2159;50.906;7.152;2023-03-20T08:11:39;12.30;;;8.43;;
4290;SDS011;2159;50.906;7.152;2023-03-20T08:14:07;12.53;;;7.30;;
4290;SDS011;2159;50.906;7.152;2023-03-20T08:16:34;10.40;;;6.60;;
4290;SDS011;2159;50.906;7.152;2023-03-20T08:19:03;10.63;;;6.80;;
4290;SDS011;2159;50.906;7.152;2023-03-20T08:21:31;11.03;;;6.90;;
4290;SDS011;2159;50.906;7.152;2023-03-20T08:23:59;8.90;;;6.20;;
4290;SDS011;2159;50.906;7.152;2023-03-20T08:26:27;10.27;;;6.70;;
4290;SDS011;2159;50.906;7.152;2023-03-20T08:28:54;12.23;;;6.70;;
4290;SDS011;2159;50.906;7.152;2023-03-20T08:31:22;11.23;;;5.83;;
4290;SDS011;2159;50.906;7.152;2023-03-20T08:33:49;9.30;;;5.67;;
4290;SDS011;2159;50.906;7.152;2023-03-20T08:36:18;11.13;;;6.00;;
4290;SDS011;2159;50.906;7.152;2023-03-20T08:38:46;8.90;;;5.17;;
4290;SDS011;2159;50.906;7.152;2023-03-20T08:41:14;7.90;;;5.57;;
4290;SDS011;2159;50.906;7.152;2023-03-20T08:43:41;8.27;;;5.87;;
4290;SDS011;2159;50.906;7.152;2023-03-20T08:46:09;22.77;;;5.70;;
4290;SDS011;2159;50.906;7.152;2023-03-20T08:48:37;13.03;;;5.77;;
4290;SDS011;2159;50.906;7.152;2023-03-20T08:51:04;8.53;;;6.03;;
4290;SDS011;2159;50.906;7.152;2023-03-20T08:53:33;8.93;;;6.10;;
4290;SDS011;2159;50.906;7.152;2023-03-20T08:56:01;10.80;;;5.60;;
4290;SDS011;2159;50.906;7.152;2023-03-20T08:58:29;7.13;;;5.20;;
4290;SDS011;2159;50.906;7.152;2023-03-20T09:00:56;11.63;;;6.00;;
4290;SDS011;2159;50.906;7.152;2023-03-20T09:03:28;10.83;;;5.80;;
4290;SDS011;2159;50.906;7.152;2023-03-20T09:05:55;7.97;;;5.63;;
4290;SDS011;2159;50.906;7.152;2023-03-20T09:08:23;9.37;;;5.07;;
4290;SDS011;2159;50.906;7.152;2023-03-20T09:10:52;8.73;;;5.30;;
4290;SDS011;2159;50.906;7.152;2023-03-20T09:13:19;6.53;;;4.60;;
4290;SDS011;2159;50.906;7.152;2023-03-20T09:15:53;7.53;;;5.20;;
4290;SDS011;2159;50.906;7.152;2023-03-20T09:18:21;5.90;;;4.40;;
4290;SDS011;2159;50.906;7.152;2023-03-20T09:20:48;14.13;;;5.07;;
4290;SDS011;2159;50.906;7.152;2023-03-20T09:23:16;5.70;;;4.87;;
4290;SDS011;2159;50.906;7.152;2023-03-20T09:25:45;8.10;;;5.37;;
4290;SDS011;2159;50.906;7.152;2023-03-20T09:28:14;8.10;;;5.20;;
4290;SDS011;2159;50.906;7.152;2023-03-20T09:30:41;11.13;;;5.30;;
4290;SDS011;2159;50.906;7.152;2023-03-20T09:33:09;7.77;;;5.87;;
4290;SDS011;2159;50.906;7.152;2023-03-20T09:35:37;7.63;;;5.73;;
4290;SDS011;2159;50.906;7.152;2023-03-20T09:38:06;9.63;;;6.03;;
4290;SDS011;2159;50.906;7.152;2023-03-20T09:40:37;7.63;;;5.43;;
4290;SDS011;2159;50.906;7.152;2023-03-20T09:43:09;19.17;;;6.10;;
4290;SDS011;2159;50.906;7.152;2023-03-20T09:45:44;8.90;;;5.33;;
4290;SDS011;2159;50.906;7.152;2023-03-20T09:48:14;10.00;;;6.13;;
4290;SDS011;2159;50.906;7.152;2023-03-20T09:50:47;6.50;;;5.63;;
4290;SDS011;2159;50.906;7.152;2023-03-20T09:53:17;8.20;;;6.50;;
4290;SDS011;2159;50.906;7.152;2023-03-20T09:55:47;10.90;;;6.10;;
4290;SDS011;2159;50.906;7.152;2023-03-20T09:58:16;8.13;;;5.90;;
4290;SDS011;2159;50.906;7.152;2023-03-20T10:00:47;7.70;;;5.67;;
4290;SDS011;2159;50.906;7.152;2023-03-20T10:03:16;8.47;;;6.63;;
4290;SDS011;2159;50.906;7.152;2023-03-20T10:05:44;8.67;;;6.00;;
4290;SDS011;2159;50.906;7.152;2023-03-20T10:08:13;7.50;;;5.90;;
4290;SDS011;2159;50.906;7.152;2023-03-20T10:10:45;8.73;;;6.23;;
4290;SDS011;2159;50.906;7.152;2023-03-20T10:16:11;11.00;;;6.50;;
4290;SDS011;2159;50.906;7.152;2023-03-20T10:18:42;9.73;;;5.73;;
4290;SDS011;2159;50.906;7.152;2023-03-20T10:21:13;8.17;;;6.00;;
4290;SDS011;2159;50.906;7.152;2023-03-20T10:23:46;6.60;;;5.47;;
4290;SDS011;2159;50.906;7.152;2023-03-20T10:26:17;6.90;;;5.50;;
4290;SDS011;2159;50.906;7.152;2023-03-20T10:28:46;9.13;;;6.30;;
4290;SDS011;2159;50.906;7.152;2023-03-20T10:31:22;10.30;;;5.97;;
4290;SDS011;2159;50.906;7.152;2023-03-20T10:33:56;8.70;;;6.20;;
4290;SDS011;2159;50.906;7.152;2023-03-20T10:36:34;7.53;;;5.67;;
4290;SDS011;2159;50.906;7.152;2023-03-20T10:39:09;8.73;;;6.00;;
4290;SDS011;2159;50.906;7.152;2023-03-20T10:41:40;8.27;;;6.10;;
4290;SDS011;2159;50.906;7.152;2023-03-20T10:44:09;8.17;;;5.87;;
4290;SDS011;2159;50.906;7.152;2023-03-20T10:46:43;9.57;;;6.57;;
4290;SDS011;2159;50.906;7.152;2023-03-20T10:49:12;8.07;;;5.93;;
4290;SDS011;2159;50.906;7.152;2023-03-20T10:51:45;7.70;;;4.93;;
4290;SDS011;2159;50.906;7.152;2023-03-20T10:54:18;5.73;;;4.57;;
4290;SDS011;2159;50.906;7.152;2023-03-20T10:56:47;6.00;;;5.07;;
4290;SDS011;2159;50.906;7.152;2023-03-20T10:59:16;6.50;;;5.37;;
4290;SDS011;2159;50.906;7.152;2023-03-20T11:01:47;7.57;;;5.00;;
4290;SDS011;2159;50.906;7.152;2023-03-20T11:04:15;6.00;;;4.90;;
4290;SDS011;2159;50.906;7.152;2023-03-20T11:06:45;11.30;;;4.93;;
4290;SDS011;2159;50.906;7.152;2023-03-20T11:09:15;8.53;;;4.93;;
4290;SDS011;2159;50.906;7.152;2023-03-20T11:11:44;6.43;;;4.70;;
4290;SDS011;2159;50.906;7.152;2023-03-20T11:14:16;7.67;;;5.40;;
4290;SDS011;2159;50.906;7.152;2023-03-20T11:16:47;8.27;;;5.47;;
4290;SDS011;2159;50.906;7.152;2023-03-20T11:19:17;7.43;;;4.80;;
4290;SDS011;2159;50.906;7.152;2023-03-20T11:21:46;8.60;;;5.20;;
4290;SDS011;2159;50.906;7.152;2023-03-20T11:24:21;7.20;;;4.57;;
4290;SDS011;2159;50.906;7.152;2023-03-20T11:26:50;10.83;;;5.30;;
4290;SDS011;2159;50.906;7.152;2023-03-20T11:29:20;6.30;;;4.70;;
4290;SDS011;2159;50.906;7.152;2023-03-20T11:31:50;4.47;;;4.07;;
4290;SDS011;2159;50.906;7.152;2023-03-20T11:34:21;6.70;;;4.40;;
4290;SDS011;2159;50.906;7.152;2023-03-20T11:36:55;7.17;;;3.53;;
4290;SDS011;2159;50.906;7.152;2023-03-20T11:39:35;4.27;;;3.23;;
4290;SDS011;2159;50.906;7.152;2023-03-20T11:42:03;7.43;;;3.60;;
4290;SDS011;2159;50.906;7.152;2023-03-20T11:44:31;3.70;;;3.03;;
4290;SDS011;2159;50.906;7.152;2023-03-20T11:47:01;3.30;;;2.97;;
4290;SDS011;2159;50.906;7.152;2023-03-20T11:49:29;4.17;;;3.30;;
4290;SDS011;2159;50.906;7.152;2023-03-20T11:51:58;4.73;;;2.70;;
4290;SDS011;2159;50.906;7.152;2023-03-20T11:54:27;6.33;;;3.23;;
4290;SDS011;2159;50.906;7.152;2023-03-20T11:56:56;3.40;;;2.70;;
4290;SDS011;2159;50.906;7.152;2023-03-20T11:59:25;3.23;;;2.60;;
4290;SDS011;2159;50.906;7.152;2023-03-20T12:01:53;3.93;;;2.80;;
4290;SDS011;2159;50.906;7.152;2023-03-20T12:04:26;3.63;;;2.70;;
4290;SDS011;2159;50.906;7.152;2023-03-20T12:06:55;3.67;;;2.60;;
4290;SDS011;2159;50.906;7.152;2023-03-20T12:09:29;3.80;;;2.43;;
4290;SDS011;2159;50.906;7.152;2023-03-20T12:11:58;2.50;;;2.30;;
4290;SDS011;2159;50.906;7.152;2023-03-20T12:14:29;4.23;;;1.90;;
4290;SDS011;2159;50.906;7.152;2023-03-20T12:17:04;2.70;;;2.10;;
4290;SDS011;2159;50.906;7.152;2023-03-20T12:19:33;4.60;;;2.17;;
4290;SDS011;2159;50.906;7.152;2023-03-20T12:22:02;2.40;;;1.90;;
4290;SDS011;2159;50.906;7.152;2023-03-20T12:24:36;3.90;;;2.27;;
4290;SDS011;2159;50.906;7.152;2023-03-20T12:27:10;3.07;;;2.50;;
4290;SDS011;2159;50.906;7.152;2023-03-20T12:29:42;1.80;;;1.70;;
4290;SDS011;2159;50.906;7.152;2023-03-20T12:32:13;11.37;;;2.37;;
4290;SDS011;2159;50.906;7.152;2023-03-20T12:34:43;3.30;;;2.10;;
4290;SDS011;2159;50.906;7.152;2023-03-20T12:37:13;2.80;;;2.30;;
4290;SDS011;2159;50.906;7.152;2023-03-20T12:39:46;3.07;;;1.60;;
4290;SDS011;2159;50.906;7.152;2023-03-20T12:42:16;3.37;;;1.90;;
4290;SDS011;2159;50.906;7.152;2023-03-20T12:44:47;3.60;;;2.03;;
4290;SDS011;2159;50.906;7.152;2023-03-20T12:47:27;3.80;;;1.90;;
4290;SDS011;2159;50.906;7.152;2023-03-20T12:50:02;6.33;;;1.60;;
4290;SDS011;2159;50.906;7.152;2023-03-20T12:52:36;4.97;;;1.80;;
4290;SDS011;2159;50.906;7.152;2023-03-20T12:55:13;1.60;;;1.50;;
4290;SDS011;2159;50.906;7.152;2023-03-20T12:57:46;4.50;;;1.73;;
4290;SDS011;2159;50.906;7.152;2023-03-20T13:00:19;5.73;;;1.60;;
4290;SDS011;2159;50.906;7.152;2023-03-20T13:02:54;1.83;;;1.47;;
4290;SDS011;2159;50.906;7.152;2023-03-20T13:05:29;6.47;;;2.40;;
4290;SDS011;2159;50.906;7.152;2023-03-20T13:08:02;3.87;;;1.70;;
4290;SDS011;2159;50.906;7.152;2023-03-20T13:10:35;3.20;;;1.70;;
4290;SDS011;2159;50.906;7.152;2023-03-20T13:13:06;2.73;;;1.67;;
4290;SDS011;2159;50.906;7.152;2023-03-20T13:15:42;3.40;;;1.70;;
4290;SDS011;2159;50.906;7.152;2023-03-20T13:18:14;1.80;;;1.70;;
4290;SDS011;2159;50.906;7.152;2023-03-20T13:20:47;2.40;;;2.13;;
4290;SDS011;2159;50.906;7.152;2023-03-20T13:23:18;2.47;;;1.90;;
4290;SDS011;2159;50.906;7.152;2023-03-20T13:25:52;2.73;;;2.50;;
4290;SDS011;2159;50.906;7.152;2023-03-20T13:28:23;4.40;;;2.50;;
4290;SDS011;2159;50.906;7.152;2023-03-20T13:30:57;4.63;;;2.60;;
4290;SDS011;2159;50.906;7.152;2023-03-20T13:33:33;4.23;;;2.53;;
4290;SDS011;2159;50.906;7.152;2023-03-20T13:36:06;4.47;;;2.60;;
4290;SDS011;2159;50.906;7.152;2023-03-20T13:38:40;3.63;;;2.40;;
4290;SDS011;2159;50.906;7.152;2023-03-20T13:41:10;5.10;;;2.80;;
4290;SDS011;2159;50.906;7.152;2023-03-20T13:43:38;4.30;;;2.40;;
4290;SDS011;2159;50.906;7.152;2023-03-20T13:46:08;7.90;;;2.10;;
4290;SDS011;2159;50.906;7.152;2023-03-20T13:48:37;2.40;;;1.93;;
4290;SDS011;2159;50.906;7.152;2023-03-20T13:51:15;2.20;;;2.00;;
4290;SDS011;2159;50.906;7.152;2023-03-20T13:53:53;2.13;;;1.90;;
4290;SDS011;2159;50.906;7.152;2023-03-20T13:56:31;1.77;;;1.60;;
4290;SDS011;2159;50.906;7.152;2023-03-20T13:59:08;5.97;;;2.40;;
4290;SDS011;2159;50.906;7.152;2023-03-20T14:01:39;3.87;;;2.37;;
4290;SDS011;2159;50.906;7.152;2023-03-20T14:04:12;2.43;;;2.23;;
4290;SDS011;2159;50.906;7.152;2023-03-20T14:06:49;2.93;;;1.80;;
4290;SDS011;2159;50.906;7.152;2023-03-20T14:09:23;4.23;;;2.13;;
4290;SDS011;2159;50.906;7.152;2023-03-20T14:11:51;3.47;;;1.97;;
4290;SDS011;2159;50.906;7.152;2023-03-20T14:14:23;5.03;;;2.57;;
4290;SDS011;2159;50.906;7.152;2023-03-20T14:16:58;3.57;;;2.07;;
4290;SDS011;2159;50.906;7.152;2023-03-20T14:19:27;3.63;;;1.50;;
4290;SDS011;2159;50.906;7.152;2023-03-20T14:21:56;2.13;;;1.50;;
4290;SDS011;2159;50.906;7.152;2023-03-20T14:24:25;3.77;;;1.73;;
4290;SDS011;2159;50.906;7.152;2023-03-20T14:26:53;2.20;;;1.80;;
4290;SDS011;2159;50.906;7.152;2023-03-20T14:29:32;5.00;;;2.00;;
4290;SDS011;2159;50.906;7.152;2023-03-20T14:32:04;2.70;;;1.63;;
4290;SDS011;2159;50.906;7.152;2023-03-20T14:34:44;1.70;;;1.30;;
4290;SDS011;2159;50.906;7.152;2023-03-20T14:40:00;3.37;;;1.67;;
4290;SDS011;2159;50.906;7.152;2023-03-20T14:42:35;2.77;;;1.50;;
4290;SDS011;2159;50.906;7.152;2023-03-20T14:45:14;2.67;;;1.97;;
4290;SDS011;2159;50.906;7.152;2023-03-20T14:47:45;3.73;;;1.50;;
4290;SDS011;2159;50.906;7.152;2023-03-20T14:50:17;3.53;;;1.97;;
4290;SDS011;2159;50.906;7.152;2023-03-20T14:52:52;2.43;;;1.60;;
4290;SDS011;2159;50.906;7.152;2023-03-20T14:55:30;3.43;;;1.87;;
4290;SDS011;2159;50.906;7.152;2023-03-20T14:58:01;3.00;;;2.00;;
4290;SDS011;2159;50.906;7.152;2023-03-20T15:00:32;4.13;;;2.10;;
4290;SDS011;2159;50.906;7.152;2023-03-20T15:03:03;2.00;;;1.63;;
4290;SDS011;2159;50.906;7.152;2023-03-20T15:05:32;7.73;;;2.33;;
4290;SDS011;2159;50.906;7.152;2023-03-20T15:08:02;3.80;;;2.00;;
4290;SDS011;2159;50.906;7.152;2023-03-20T15:10:32;2.30;;;1.60;;
4290;SDS011;2159;50.906;7.152;2023-03-20T15:13:00;3.07;;;2.67;;
4290;SDS011;2159;50.906;7.152;2023-03-20T15:15:29;3.30;;;1.90;;
4290;SDS011;2159;50.906;7.152;2023-03-20T15:18:02;2.70;;;1.80;;
4290;SDS011;2159;50.906;7.152;2023-03-20T15:20:29;3.27;;;2.17;;
4290;SDS011;2159;50.906;7.152;2023-03-20T15:22:57;3.90;;;1.90;;
4290;SDS011;2159;50.906;7.152;2023-03-20T15:25:27;4.60;;;2.80;;
4290;SDS011;2159;50.906;7.152;2023-03-20T15:27:56;4.43;;;2.13;;
4290;SDS011;2159;50.906;7.152;2023-03-20T15:30:24;3.77;;;1.80;;
4290;SDS011;2159;50.906;7.152;2023-03-20T15:32:52;2.60;;;2.40;;
4290;SDS011;2159;50.906;7.152;2023-03-20T15:35:21;8.30;;;2.60;;